sensor_id;sensor_type;location;lat;lon;timestamp;P1;durP1;ratioP1;P2;durP2;ratioP2
50267;SDS011;36153;50.960;6.220;2023-10-09T00:01:18;8.70;;;3.90;;
50267;SDS011;36153;50.960;6.220;2023-10-09T00:04:19;8.45;;;3.42;;
50267;SDS011;36153;50.960;6.220;2023-10-09T00:07:20;7.97;;;3.50;;
50267;SDS011;36153;50.960;6.220;2023-10-09T00:10:30;7.82;;;3.95;;
50267;SDS011;36153;50.960;6.220;2023-10-09T00:13:46;7.95;;;4.68;;
50267;SDS011;36153;50.960;6.220;2023-10-09T00:16:58;6.40;;;3.33;;
50267;SDS011;36153;50.960;6.220;2023-10-09T00:20:17;8.82;;;4.10;;
50267;SDS011;36153;50.960;6.220;2023-10-09T00:23:21;7.72;;;4.00;;
50267;SDS011;36153;50.960;6.220;2023-10-09T00:26:25;5.65;;;3.28;;
50267;SDS011;36153;50.960;6.220;2023-10-09T00:29:27;8.10;;;3.88;;
50267;SDS011;36153;50.960;6.220;2023-10-09T00:32:35;6.53;;;3.45;;
50267;SDS011;36153;50.960;6.220;2023-10-09T00:35:40;8.63;;;3.70;;
50267;SDS011;36153;50.960;6.220;2023-10-09T00:38:44;6.60;;;3.75;;
50267;SDS011;36153;50.960;6.220;2023-10-09T00:41:48;5.93;;;3.17;;
50267;SDS011;36153;50.960;6.220;2023-10-09T00:44:49;6.65;;;3.38;;
50267;SDS011;36153;50.960;6.220;2023-10-09T00:47:49;6.38;;;3.47;;
50267;SDS011;36153;50.960;6.220;2023-10-09T00:50:49;6.05;;;3.28;;
50267;SDS011;36153;50.960;6.220;2023-10-09T00:53:55;6.85;;;3.63;;
50267;SDS011;36153;50.960;6.220;2023-10-09T00:56:58;8.65;;;3.67;;
50267;SDS011;36153;50.960;6.220;2023-10-09T01:00:06;5.78;;;3.35;;
50267;SDS011;36153;50.960;6.220;2023-10-09T01:03:24;8.98;;;3.60;;
50267;SDS011;36153;50.960;6.220;2023-10-09T01:06:25;8.02;;;3.60;;
50267;SDS011;36153;50.960;6.220;2023-10-09T01:09:33;5.78;;;3.35;;
50267;SDS011;36153;50.960;6.220;2023-10-09T01:12:49;7.78;;;3.47;;
50267;SDS011;36153;50.960;6.220;2023-10-09T01:15:55;6.20;;;3.65;;
50267;SDS011;36153;50.960;6.220;2023-10-09T01:18:58;5.85;;;3.00;;
50267;SDS011;36153;50.960;6.220;2023-10-09T01:21:59;5.07;;;3.30;;
50267;SDS011;36153;50.960;6.220;2023-10-09T01:25:12;6.13;;;2.83;;
50267;SDS011;36153;50.960;6.220;2023-10-09T01:28:13;6.80;;;3.30;;
50267;SDS011;36153;50.960;6.220;2023-10-09T01:31:15;5.32;;;3.35;;
50267;SDS011;36153;50.960;6.220;2023-10-09T01:34:18;6.93;;;3.47;;
50267;SDS011;36153;50.960;6.220;2023-10-09T01:37:24;5.50;;;3.83;;
50267;SDS011;36153;50.960;6.220;2023-10-09T01:40:29;8.10;;;3.72;;
50267;SDS011;36153;50.960;6.220;2023-10-09T01:43:37;7.15;;;3.72;;
50267;SDS011;36153;50.960;6.220;2023-10-09T01:47:07;5.70;;;3.40;;
50267;SDS011;36153;50.960;6.220;2023-10-09T01:50:14;8.50;;;3.85;;
50267;SDS011;36153;50.960;6.220;2023-10-09T01:53:20;8.43;;;3.88;;
50267;SDS011;36153;50.960;6.220;2023-10-09T01:56:27;7.20;;;3.55;;
50267;SDS011;36153;50.960;6.220;2023-10-09T01:59:32;7.45;;;4.00;;
50267;SDS011;36153;50.960;6.220;2023-10-09T02:02:44;7.60;;;4.03;;
50267;SDS011;36153;50.960;6.220;2023-10-09T02:05:53;7.18;;;3.92;;
50267;SDS011;36153;50.960;6.220;2023-10-09T02:08:59;6.93;;;3.83;;
50267;SDS011;36153;50.960;6.220;2023-10-09T02:12:01;5.95;;;3.40;;
50267;SDS011;36153;50.960;6.220;2023-10-09T02:15:04;7.38;;;3.95;;
50267;SDS011;36153;50.960;6.220;2023-10-09T02:18:16;9.80;;;4.13;;
50267;SDS011;36153;50.960;6.220;2023-10-09T02:21:48;6.65;;;3.80;;
50267;SDS011;36153;50.960;6.220;2023-10-09T02:25:05;8.43;;;3.97;;
50267;SDS011;36153;50.960;6.220;2023-10-09T02:28:45;8.75;;;3.83;;
50267;SDS011;36153;50.960;6.220;2023-10-09T02:32:34;5.70;;;3.90;;
50267;SDS011;36153;50.960;6.220;2023-10-09T02:35:36;11.15;;;3.78;;
50267;SDS011;36153;50.960;6.220;2023-10-09T02:38:48;7.82;;;3.92;;
50267;SDS011;36153;50.960;6.220;2023-10-09T02:42:18;7.57;;;3.90;;
50267;SDS011;36153;50.960;6.220;2023-10-09T02:45:36;8.90;;;4.03;;
50267;SDS011;36153;50.960;6.220;2023-10-09T02:52:47;6.55;;;3.67;;
50267;SDS011;36153;50.960;6.220;2023-10-09T02:56:28;9.50;;;3.80;;
50267;SDS011;36153;50.960;6.220;2023-10-09T03:00:15;7.03;;;3.60;;
50267;SDS011;36153;50.960;6.220;2023-10-09T03:03:36;7.30;;;4.32;;
50267;SDS011;36153;50.960;6.220;2023-10-09T03:06:54;7.75;;;3.80;;
50267;SDS011;36153;50.960;6.220;2023-10-09T03:10:18;10.88;;;4.32;;
50267;SDS011;36153;50.960;6.220;2023-10-09T03:13:25;10.40;;;4.18;;
50267;SDS011;36153;50.960;6.220;2023-10-09T03:16:29;9.05;;;3.85;;
50267;SDS011;36153;50.960;6.220;2023-10-09T03:19:39;9.32;;;3.75;;
50267;SDS011;36153;50.960;6.220;2023-10-09T03:22:52;7.63;;;4.38;;
50267;SDS011;36153;50.960;6.220;2023-10-09T03:25:55;6.78;;;3.85;;
50267;SDS011;36153;50.960;6.220;2023-10-09T03:29:06;8.55;;;3.88;;
50267;SDS011;36153;50.960;6.220;2023-10-09T03:32:10;6.75;;;3.97;;
50267;SDS011;36153;50.960;6.220;2023-10-09T03:35:13;7.18;;;3.80;;
50267;SDS011;36153;50.960;6.220;2023-10-09T03:38:23;7.15;;;3.95;;
50267;SDS011;36153;50.960;6.220;2023-10-09T03:41:34;7.97;;;4.07;;
50267;SDS011;36153;50.960;6.220;2023-10-09T03:44:43;8.02;;;3.80;;
50267;SDS011;36153;50.960;6.220;2023-10-09T03:47:51;7.18;;;3.85;;
50267;SDS011;36153;50.960;6.220;2023-10-09T03:51:02;9.82;;;4.30;;
50267;SDS011;36153;50.960;6.220;2023-10-09T03:54:10;6.88;;;4.00;;
50267;SDS011;36153;50.960;6.220;2023-10-09T03:57:17;6.85;;;3.70;;
50267;SDS011;36153;50.960;6.220;2023-10-09T04:00:21;9.18;;;4.25;;
50267;SDS011;36153;50.960;6.220;2023-10-09T04:03:27;8.10;;;4.65;;
50267;SDS011;36153;50.960;6.220;2023-10-09T04:06:29;7.28;;;4.18;;
50267;SDS011;36153;50.960;6.220;2023-10-09T04:09:33;8.40;;;4.57;;
50267;SDS011;36153;50.960;6.220;2023-10-09T04:12:46;8.15;;;4.05;;
50267;SDS011;36153;50.960;6.220;2023-10-09T04:16:00;12.63;;;4.68;;
50267;SDS011;36153;50.960;6.220;2023-10-09T04:19:24;6.80;;;4.15;;
50267;SDS011;36153;50.960;6.220;2023-10-09T04:22:48;11.60;;;4.78;;
50267;SDS011;36153;50.960;6.220;2023-10-09T04:25:54;8.63;;;4.25;;
50267;SDS011;36153;50.960;6.220;2023-10-09T04:29:16;13.20;;;4.80;;
50267;SDS011;36153;50.960;6.220;2023-10-09T04:32:27;7.32;;;3.78;;
50267;SDS011;36153;50.960;6.220;2023-10-09T04:36:03;9.32;;;4.75;;
50267;SDS011;36153;50.960;6.220;2023-10-09T04:44:05;9.10;;;4.38;;
50267;SDS011;36153;50.960;6.220;2023-10-09T04:51:54;7.95;;;4.93;;
50267;SDS011;36153;50.960;6.220;2023-10-09T05:00:56;7.97;;;4.72;;
50267;SDS011;36153;50.960;6.220;2023-10-09T05:04:49;8.07;;;4.07;;
50267;SDS011;36153;50.960;6.220;2023-10-09T05:08:39;13.15;;;5.78;;
50267;SDS011;36153;50.960;6.220;2023-10-09T05:15:20;7.30;;;4.30;;
50267;SDS011;36153;50.960;6.220;2023-10-09T05:18:33;8.18;;;4.43;;
50267;SDS011;36153;50.960;6.220;2023-10-09T05:21:47;7.63;;;4.35;;
50267;SDS011;36153;50.960;6.220;2023-10-09T05:24:58;11.18;;;4.63;;
50267;SDS011;36153;50.960;6.220;2023-10-09T05:32:36;9.35;;;4.70;;
50267;SDS011;36153;50.960;6.220;2023-10-09T05:36:08;8.25;;;4.22;;
50267;SDS011;36153;50.960;6.220;2023-10-09T05:39:43;7.60;;;4.65;;
50267;SDS011;36153;50.960;6.220;2023-10-09T05:50:39;8.98;;;5.20;;
50267;SDS011;36153;50.960;6.220;2023-10-09T05:54:34;7.38;;;4.68;;
50267;SDS011;36153;50.960;6.220;2023-10-09T05:58:05;10.90;;;4.60;;
50267;SDS011;36153;50.960;6.220;2023-10-09T06:01:40;8.70;;;4.40;;
50267;SDS011;36153;50.960;6.220;2023-10-09T06:04:58;10.30;;;4.63;;
50267;SDS011;36153;50.960;6.220;2023-10-09T06:08:02;9.30;;;4.38;;
50267;SDS011;36153;50.960;6.220;2023-10-09T09:13:15;12.07;;;5.07;;
50267;SDS011;36153;50.960;6.220;2023-10-09T09:16:22;10.63;;;4.90;;
50267;SDS011;36153;50.960;6.220;2023-10-09T09:19:32;11.57;;;5.25;;
50267;SDS011;36153;50.960;6.220;2023-10-09T09:22:33;12.23;;;5.43;;
50267;SDS011;36153;50.960;6.220;2023-10-09T09:25:52;9.68;;;5.50;;
50267;SDS011;36153;50.960;6.220;2023-10-09T09:28:59;9.10;;;5.03;;
50267;SDS011;36153;50.960;6.220;2023-10-09T09:32:00;11.75;;;5.32;;
50267;SDS011;36153;50.960;6.220;2023-10-09T09:35:15;11.98;;;5.63;;
50267;SDS011;36153;50.960;6.220;2023-10-09T09:38:19;9.10;;;5.38;;
50267;SDS011;36153;50.960;6.220;2023-10-09T09:41:22;8.35;;;4.95;;
50267;SDS011;36153;50.960;6.220;2023-10-09T09:44:25;9.60;;;4.43;;
50267;SDS011;36153;50.960;6.220;2023-10-09T09:47:30;8.82;;;4.60;;
50267;SDS011;36153;50.960;6.220;2023-10-09T09:50:35;7.55;;;4.53;;
50267;SDS011;36153;50.960;6.220;2023-10-09T09:53:44;5.60;;;3.88;;
50267;SDS011;36153;50.960;6.220;2023-10-09T09:56:50;5.75;;;3.92;;
50267;SDS011;36153;50.960;6.220;2023-10-09T09:59:54;6.88;;;3.70;;
50267;SDS011;36153;50.960;6.220;2023-10-09T10:02:58;5.53;;;3.30;;
50267;SDS011;36153;50.960;6.220;2023-10-09T10:06:05;5.78;;;3.45;;
50267;SDS011;36153;50.960;6.220;2023-10-09T10:09:33;7.20;;;3.60;;
50267;SDS011;36153;50.960;6.220;2023-10-09T10:16:00;6.97;;;3.60;;
50267;SDS011;36153;50.960;6.220;2023-10-09T10:19:13;7.95;;;4.28;;
50267;SDS011;36153;50.960;6.220;2023-10-09T10:22:23;6.95;;;3.25;;
50267;SDS011;36153;50.960;6.220;2023-10-09T10:28:32;7.10;;;2.75;;
50267;SDS011;36153;50.960;6.220;2023-10-09T10:31:51;5.50;;;2.78;;
50267;SDS011;36153;50.960;6.220;2023-10-09T10:35:08;7.47;;;3.33;;
50267;SDS011;36153;50.960;6.220;2023-10-09T10:38:23;4.93;;;2.35;;
50267;SDS011;36153;50.960;6.220;2023-10-09T10:41:24;4.95;;;3.10;;
50267;SDS011;36153;50.960;6.220;2023-10-09T10:44:25;7.20;;;3.00;;
50267;SDS011;36153;50.960;6.220;2023-10-09T10:47:38;5.85;;;2.75;;
50267;SDS011;36153;50.960;6.220;2023-10-09T10:50:40;5.43;;;2.25;;
50267;SDS011;36153;50.960;6.220;2023-10-09T10:53:51;6.95;;;2.70;;
50267;SDS011;36153;50.960;6.220;2023-10-09T10:56:56;6.53;;;2.92;;
50267;SDS011;36153;50.960;6.220;2023-10-09T10:59:57;6.90;;;2.65;;
50267;SDS011;36153;50.960;6.220;2023-10-09T11:03:33;8.13;;;2.95;;
50267;SDS011;36153;50.960;6.220;2023-10-09T11:06:55;7.80;;;2.63;;
50267;SDS011;36153;50.960;6.220;2023-10-09T11:10:14;5.07;;;2.75;;
50267;SDS011;36153;50.960;6.220;2023-10-09T11:13:28;7.35;;;2.60;;
50267;SDS011;36153;50.960;6.220;2023-10-09T11:16:35;5.43;;;2.70;;
50267;SDS011;36153;50.960;6.220;2023-10-09T11:19:42;6.50;;;2.70;;
50267;SDS011;36153;50.960;6.220;2023-10-09T11:22:43;5.60;;;3.00;;
50267;SDS011;36153;50.960;6.220;2023-10-09T11:26:04;5.43;;;2.85;;
50267;SDS011;36153;50.960;6.220;2023-10-09T11:29:25;6.63;;;2.95;;
50267;SDS011;36153;50.960;6.220;2023-10-09T11:32:47;6.68;;;3.33;;
50267;SDS011;36153;50.960;6.220;2023-10-09T11:35:56;9.55;;;3.25;;
50267;SDS011;36153;50.960;6.220;2023-10-09T11:38:57;6.45;;;3.30;;
50267;SDS011;36153;50.960;6.220;2023-10-09T11:42:20;6.63;;;3.40;;
50267;SDS011;36153;50.960;6.220;2023-10-09T11:45:35;6.25;;;3.22;;
50267;SDS011;36153;50.960;6.220;2023-10-09T11:48:38;9.93;;;4.05;;
50267;SDS011;36153;50.960;6.220;2023-10-09T11:52:07;6.57;;;3.15;;
50267;SDS011;36153;50.960;6.220;2023-10-09T11:55:14;7.28;;;3.80;;
50267;SDS011;36153;50.960;6.220;2023-10-09T11:58:16;6.45;;;3.83;;
50267;SDS011;36153;50.960;6.220;2023-10-09T12:01:23;8.48;;;3.20;;
50267;SDS011;36153;50.960;6.220;2023-10-09T12:04:25;7.80;;;3.50;;
50267;SDS011;36153;50.960;6.220;2023-10-09T12:07:30;9.40;;;3.33;;
50267;SDS011;36153;50.960;6.220;2023-10-09T12:10:30;7.85;;;3.08;;
50267;SDS011;36153;50.960;6.220;2023-10-09T12:13:31;9.52;;;3.72;;
50267;SDS011;36153;50.960;6.220;2023-10-09T12:16:31;6.95;;;2.85;;
50267;SDS011;36153;50.960;6.220;2023-10-09T12:19:36;6.20;;;3.13;;
50267;SDS011;36153;50.960;6.220;2023-10-09T12:22:38;6.95;;;2.78;;
50267;SDS011;36153;50.960;6.220;2023-10-09T12:25:40;11.05;;;2.83;;
50267;SDS011;36153;50.960;6.220;2023-10-09T12:28:45;6.82;;;3.13;;
50267;SDS011;36153;50.960;6.220;2023-10-09T12:31:46;5.95;;;3.50;;
50267;SDS011;36153;50.960;6.220;2023-10-09T12:34:46;5.75;;;2.88;;
50267;SDS011;36153;50.960;6.220;2023-10-09T12:37:53;8.45;;;3.65;;
50267;SDS011;36153;50.960;6.220;2023-10-09T12:41:00;6.63;;;3.53;;
50267;SDS011;36153;50.960;6.220;2023-10-09T12:44:25;8.75;;;3.08;;
50267;SDS011;36153;50.960;6.220;2023-10-09T12:47:27;6.63;;;3.28;;
50267;SDS011;36153;50.960;6.220;2023-10-09T12:50:27;5.20;;;3.13;;
50267;SDS011;36153;50.960;6.220;2023-10-09T12:53:28;7.03;;;2.70;;
50267;SDS011;36153;50.960;6.220;2023-10-09T12:56:29;7.38;;;3.38;;
50267;SDS011;36153;50.960;6.220;2023-10-09T12:59:38;6.38;;;3.40;;
50267;SDS011;36153;50.960;6.220;2023-10-09T13:02:39;4.95;;;3.10;;
50267;SDS011;36153;50.960;6.220;2023-10-09T13:08:58;8.23;;;3.70;;
50267;SDS011;36153;50.960;6.220;2023-10-09T13:12:00;6.57;;;3.15;;
50267;SDS011;36153;50.960;6.220;2023-10-09T13:15:03;6.97;;;3.30;;
50267;SDS011;36153;50.960;6.220;2023-10-09T13:18:09;5.97;;;3.30;;
50267;SDS011;36153;50.960;6.220;2023-10-09T13:21:10;7.20;;;3.60;;
50267;SDS011;36153;50.960;6.220;2023-10-09T13:24:10;6.03;;;3.75;;
50267;SDS011;36153;50.960;6.220;2023-10-09T13:27:15;6.65;;;3.25;;
50267;SDS011;36153;50.960;6.220;2023-10-09T13:30:21;7.43;;;3.13;;
50267;SDS011;36153;50.960;6.220;2023-10-09T13:33:24;6.97;;;3.30;;
50267;SDS011;36153;50.960;6.220;2023-10-09T13:36:27;6.28;;;3.30;;
50267;SDS011;36153;50.960;6.220;2023-10-09T13:39:27;6.32;;;3.22;;
50267;SDS011;36153;50.960;6.220;2023-10-09T13:42:30;5.20;;;3.03;;
50267;SDS011;36153;50.960;6.220;2023-10-09T13:45:31;5.78;;;3.60;;
50267;SDS011;36153;50.960;6.220;2023-10-09T13:48:33;6.40;;;3.55;;
50267;SDS011;36153;50.960;6.220;2023-10-09T13:51:38;6.30;;;3.53;;
50267;SDS011;36153;50.960;6.220;2023-10-09T13:54:44;9.32;;;3.83;;
50267;SDS011;36153;50.960;6.220;2023-10-09T13:57:48;6.72;;;3.78;;
50267;SDS011;36153;50.960;6.220;2023-10-09T14:00:48;8.18;;;3.30;;
50267;SDS011;36153;50.960;6.220;2023-10-09T14:03:50;8.07;;;3.97;;
50267;SDS011;36153;50.960;6.220;2023-10-09T14:06:53;10.35;;;4.03;;
50267;SDS011;36153;50.960;6.220;2023-10-09T14:10:00;7.07;;;3.88;;
50267;SDS011;36153;50.960;6.220;2023-10-09T14:13:30;7.95;;;3.55;;
50267;SDS011;36153;50.960;6.220;2023-10-09T14:16:32;9.20;;;3.75;;
50267;SDS011;36153;50.960;6.220;2023-10-09T14:19:33;6.53;;;3.45;;
50267;SDS011;36153;50.960;6.220;2023-10-09T14:22:33;13.23;;;3.88;;
50267;SDS011;36153;50.960;6.220;2023-10-09T14:25:38;8.55;;;3.90;;
50267;SDS011;36153;50.960;6.220;2023-10-09T14:28:39;6.90;;;3.50;;
50267;SDS011;36153;50.960;6.220;2023-10-09T14:31:43;7.63;;;4.32;;
50267;SDS011;36153;50.960;6.220;2023-10-09T14:34:49;6.63;;;4.00;;
50267;SDS011;36153;50.960;6.220;2023-10-09T14:37:54;9.63;;;4.75;;
50267;SDS011;36153;50.960;6.220;2023-10-09T14:40:55;7.25;;;3.83;;
50267;SDS011;36153;50.960;6.220;2023-10-09T14:43:59;7.25;;;3.92;;
50267;SDS011;36153;50.960;6.220;2023-10-09T14:47:00;7.47;;;4.15;;
50267;SDS011;36153;50.960;6.220;2023-10-09T14:50:05;8.23;;;4.80;;
50267;SDS011;36153;50.960;6.220;2023-10-09T14:53:08;9.70;;;4.03;;
50267;SDS011;36153;50.960;6.220;2023-10-09T14:56:09;7.93;;;4.10;;
50267;SDS011;36153;50.960;6.220;2023-10-09T14:59:09;9.55;;;4.22;;
50267;SDS011;36153;50.960;6.220;2023-10-09T15:02:11;6.45;;;4.15;;
50267;SDS011;36153;50.960;6.220;2023-10-09T15:05:15;5.80;;;3.95;;
50267;SDS011;36153;50.960;6.220;2023-10-09T15:08:32;8.10;;;4.75;;
50267;SDS011;36153;50.960;6.220;2023-10-09T15:11:35;8.98;;;4.10;;
50267;SDS011;36153;50.960;6.220;2023-10-09T15:14:38;6.43;;;4.10;;
50267;SDS011;36153;50.960;6.220;2023-10-09T15:17:40;9.55;;;4.38;;
50267;SDS011;36153;50.960;6.220;2023-10-09T15:20:44;7.47;;;4.22;;
50267;SDS011;36153;50.960;6.220;2023-10-09T15:23:45;9.90;;;5.20;;
50267;SDS011;36153;50.960;6.220;2023-10-09T15:26:45;8.32;;;4.43;;
50267;SDS011;36153;50.960;6.220;2023-10-09T15:29:52;10.55;;;5.10;;
50267;SDS011;36153;50.960;6.220;2023-10-09T15:32:52;8.05;;;4.68;;
50267;SDS011;36153;50.960;6.220;2023-10-09T15:35:52;9.43;;;4.93;;
50267;SDS011;36153;50.960;6.220;2023-10-09T15:38:53;8.35;;;4.35;;
50267;SDS011;36153;50.960;6.220;2023-10-09T15:41:53;9.30;;;4.38;;
50267;SDS011;36153;50.960;6.220;2023-10-09T15:44:54;10.68;;;4.97;;
50267;SDS011;36153;50.960;6.220;2023-10-09T15:47:54;8.30;;;4.82;;
50267;SDS011;36153;50.960;6.220;2023-10-09T15:50:55;7.68;;;4.82;;
50267;SDS011;36153;50.960;6.220;2023-10-09T15:53:57;7.03;;;4.65;;
50267;SDS011;36153;50.960;6.220;2023-10-09T15:56:57;9.52;;;4.80;;
50267;SDS011;36153;50.960;6.220;2023-10-09T15:59:58;9.07;;;4.93;;
50267;SDS011;36153;50.960;6.220;2023-10-09T16:02:58;9.85;;;4.53;;
50267;SDS011;36153;50.960;6.220;2023-10-09T16:06:04;7.47;;;4.38;;
50267;SDS011;36153;50.960;6.220;2023-10-09T16:09:05;12.13;;;5.50;;
50267;SDS011;36153;50.960;6.220;2023-10-09T16:12:06;9.15;;;4.55;;
50267;SDS011;36153;50.960;6.220;2023-10-09T16:15:08;6.53;;;3.97;;
50267;SDS011;36153;50.960;6.220;2023-10-09T16:18:10;8.88;;;4.13;;
50267;SDS011;36153;50.960;6.220;2023-10-09T16:21:11;8.68;;;4.57;;
50267;SDS011;36153;50.960;6.220;2023-10-09T16:24:12;9.05;;;4.22;;
50267;SDS011;36153;50.960;6.220;2023-10-09T16:27:15;8.02;;;4.75;;
50267;SDS011;36153;50.960;6.220;2023-10-09T16:30:18;6.95;;;3.92;;
50267;SDS011;36153;50.960;6.220;2023-10-09T16:33:20;8.75;;;4.55;;
50267;SDS011;36153;50.960;6.220;2023-10-09T16:36:21;8.63;;;4.53;;
50267;SDS011;36153;50.960;6.220;2023-10-09T16:39:21;8.43;;;4.10;;
50267;SDS011;36153;50.960;6.220;2023-10-09T16:42:26;7.25;;;4.32;;
50267;SDS011;36153;50.960;6.220;2023-10-09T16:45:26;10.27;;;4.95;;
50267;SDS011;36153;50.960;6.220;2023-10-09T16:48:27;8.30;;;4.80;;
50267;SDS011;36153;50.960;6.220;2023-10-09T16:51:30;10.65;;;4.82;;
50267;SDS011;36153;50.960;6.220;2023-10-09T16:54:30;7.55;;;4.85;;
50267;SDS011;36153;50.960;6.220;2023-10-09T16:57:31;9.02;;;5.13;;
50267;SDS011;36153;50.960;6.220;2023-10-09T17:00:32;10.55;;;4.85;;
50267;SDS011;36153;50.960;6.220;2023-10-09T17:03:35;7.68;;;5.03;;
50267;SDS011;36153;50.960;6.220;2023-10-09T17:06:39;10.55;;;5.80;;
50267;SDS011;36153;50.960;6.220;2023-10-09T17:09:42;8.18;;;5.15;;
50267;SDS011;36153;50.960;6.220;2023-10-09T17:12:47;11.38;;;4.30;;
50267;SDS011;36153;50.960;6.220;2023-10-09T17:15:52;10.15;;;5.10;;
50267;SDS011;36153;50.960;6.220;2023-10-09T17:18:53;10.10;;;4.82;;
50267;SDS011;36153;50.960;6.220;2023-10-09T17:21:53;10.57;;;5.78;;
50267;SDS011;36153;50.960;6.220;2023-10-09T17:24:56;9.00;;;4.55;;
50267;SDS011;36153;50.960;6.220;2023-10-09T17:27:57;10.40;;;5.53;;
50267;SDS011;36153;50.960;6.220;2023-10-09T17:31:00;9.82;;;5.22;;
50267;SDS011;36153;50.960;6.220;2023-10-09T17:34:01;11.10;;;5.57;;
50267;SDS011;36153;50.960;6.220;2023-10-09T17:37:03;8.13;;;4.95;;
50267;SDS011;36153;50.960;6.220;2023-10-09T17:40:05;9.90;;;5.82;;
50267;SDS011;36153;50.960;6.220;2023-10-09T17:43:06;8.82;;;6.05;;
50267;SDS011;36153;50.960;6.220;2023-10-09T17:46:07;9.50;;;5.22;;
50267;SDS011;36153;50.960;6.220;2023-10-09T17:49:08;11.68;;;5.43;;
50267;SDS011;36153;50.960;6.220;2023-10-09T17:52:08;11.75;;;5.55;;
50267;SDS011;36153;50.960;6.220;2023-10-09T17:55:11;8.85;;;4.72;;
50267;SDS011;36153;50.960;6.220;2023-10-09T17:58:13;11.27;;;4.95;;
50267;SDS011;36153;50.960;6.220;2023-10-09T18:01:13;11.98;;;6.13;;
50267;SDS011;36153;50.960;6.220;2023-10-09T18:04:15;8.25;;;5.05;;
50267;SDS011;36153;50.960;6.220;2023-10-09T18:07:20;10.05;;;4.95;;
50267;SDS011;36153;50.960;6.220;2023-10-09T18:10:20;9.82;;;4.93;;
50267;SDS011;36153;50.960;6.220;2023-10-09T18:13:22;10.48;;;5.72;;
50267;SDS011;36153;50.960;6.220;2023-10-09T18:16:24;9.30;;;4.80;;
50267;SDS011;36153;50.960;6.220;2023-10-09T18:19:25;9.10;;;5.07;;
50267;SDS011;36153;50.960;6.220;2023-10-09T18:22:29;10.88;;;5.20;;
50267;SDS011;36153;50.960;6.220;2023-10-09T18:25:29;9.48;;;5.53;;
50267;SDS011;36153;50.960;6.220;2023-10-09T18:28:30;12.88;;;6.35;;
50267;SDS011;36153;50.960;6.220;2023-10-09T18:31:30;9.38;;;5.93;;
50267;SDS011;36153;50.960;6.220;2023-10-09T18:34:30;8.57;;;5.38;;
50267;SDS011;36153;50.960;6.220;2023-10-09T18:37:31;9.75;;;5.93;;
50267;SDS011;36153;50.960;6.220;2023-10-09T18:40:31;9.45;;;6.28;;
50267;SDS011;36153;50.960;6.220;2023-10-09T18:43:32;9.68;;;5.65;;
50267;SDS011;36153;50.960;6.220;2023-10-09T18:46:35;8.85;;;5.40;;
50267;SDS011;36153;50.960;6.220;2023-10-09T18:49:35;9.55;;;5.95;;
50267;SDS011;36153;50.960;6.220;2023-10-09T18:52:37;12.65;;;5.70;;
50267;SDS011;36153;50.960;6.220;2023-10-09T18:55:45;12.07;;;6.32;;
50267;SDS011;36153;50.960;6.220;2023-10-09T19:01:50;7.93;;;5.05;;
50267;SDS011;36153;50.960;6.220;2023-10-09T19:04:50;7.63;;;4.97;;
50267;SDS011;36153;50.960;6.220;2023-10-09T19:07:52;9.70;;;5.97;;
50267;SDS011;36153;50.960;6.220;2023-10-09T19:11:00;10.93;;;5.93;;
50267;SDS011;36153;50.960;6.220;2023-10-09T19:14:01;11.73;;;5.50;;
50267;SDS011;36153;50.960;6.220;2023-10-09T19:17:01;11.68;;;5.82;;
50267;SDS011;36153;50.960;6.220;2023-10-09T19:20:02;9.57;;;5.82;;
50267;SDS011;36153;50.960;6.220;2023-10-09T19:23:04;9.80;;;6.30;;
50267;SDS011;36153;50.960;6.220;2023-10-09T19:26:05;11.00;;;6.50;;
50267;SDS011;36153;50.960;6.220;2023-10-09T19:29:06;9.27;;;6.50;;
50267;SDS011;36153;50.960;6.220;2023-10-09T19:32:07;11.80;;;6.85;;
50267;SDS011;36153;50.960;6.220;2023-10-09T19:35:08;12.52;;;5.85;;
50267;SDS011;36153;50.960;6.220;2023-10-09T19:38:08;10.77;;;6.80;;
50267;SDS011;36153;50.960;6.220;2023-10-09T19:41:10;14.68;;;6.28;;
50267;SDS011;36153;50.960;6.220;2023-10-09T19:44:11;10.77;;;6.88;;
50267;SDS011;36153;50.960;6.220;2023-10-09T19:47:12;12.32;;;7.55;;
50267;SDS011;36153;50.960;6.220;2023-10-09T19:50:13;11.82;;;6.65;;
50267;SDS011;36153;50.960;6.220;2023-10-09T19:53:14;10.65;;;6.43;;
50267;SDS011;36153;50.960;6.220;2023-10-09T19:56:15;11.10;;;6.53;;
50267;SDS011;36153;50.960;6.220;2023-10-09T19:59:18;13.57;;;6.88;;
50267;SDS011;36153;50.960;6.220;2023-10-09T20:02:18;11.50;;;6.32;;
50267;SDS011;36153;50.960;6.220;2023-10-09T20:05:22;14.60;;;6.80;;
50267;SDS011;36153;50.960;6.220;2023-10-09T20:08:23;10.07;;;6.10;;
50267;SDS011;36153;50.960;6.220;2023-10-09T20:11:23;9.70;;;6.18;;
50267;SDS011;36153;50.960;6.220;2023-10-09T20:14:24;11.90;;;6.32;;
50267;SDS011;36153;50.960;6.220;2023-10-09T20:17:25;15.32;;;7.35;;
50267;SDS011;36153;50.960;6.220;2023-10-09T20:20:25;11.93;;;5.97;;
50267;SDS011;36153;50.960;6.220;2023-10-09T20:23:25;14.25;;;7.72;;
50267;SDS011;36153;50.960;6.220;2023-10-09T20:26:27;10.88;;;6.70;;
50267;SDS011;36153;50.960;6.220;2023-10-09T20:29:27;11.98;;;6.78;;
50267;SDS011;36153;50.960;6.220;2023-10-09T20:32:28;15.30;;;6.47;;
50267;SDS011;36153;50.960;6.220;2023-10-09T20:35:28;10.32;;;6.40;;
50267;SDS011;36153;50.960;6.220;2023-10-09T20:38:29;9.50;;;6.05;;
50267;SDS011;36153;50.960;6.220;2023-10-09T20:41:29;10.82;;;6.30;;
50267;SDS011;36153;50.960;6.220;2023-10-09T20:44:30;11.32;;;6.70;;
50267;SDS011;36153;50.960;6.220;2023-10-09T20:47:31;13.82;;;6.85;;
50267;SDS011;36153;50.960;6.220;2023-10-09T20:50:31;12.68;;;7.13;;
50267;SDS011;36153;50.960;6.220;2023-10-09T20:53:32;12.73;;;7.28;;
50267;SDS011;36153;50.960;6.220;2023-10-09T20:56:35;14.75;;;7.70;;
50267;SDS011;36153;50.960;6.220;2023-10-09T20:59:36;12.05;;;7.25;;
50267;SDS011;36153;50.960;6.220;2023-10-09T21:02:37;20.35;;;8.13;;
50267;SDS011;36153;50.960;6.220;2023-10-09T21:05:37;12.52;;;8.15;;
50267;SDS011;36153;50.960;6.220;2023-10-09T21:08:40;13.70;;;6.60;;
50267;SDS011;36153;50.960;6.220;2023-10-09T21:11:41;13.38;;;8.00;;
50267;SDS011;36153;50.960;6.220;2023-10-09T21:14:42;17.02;;;8.45;;
50267;SDS011;36153;50.960;6.220;2023-10-09T21:17:43;12.20;;;7.15;;
50267;SDS011;36153;50.960;6.220;2023-10-09T21:20:44;14.88;;;7.90;;
50267;SDS011;36153;50.960;6.220;2023-10-09T21:23:44;12.38;;;8.05;;
50267;SDS011;36153;50.960;6.220;2023-10-09T21:26:45;15.52;;;8.60;;
50267;SDS011;36153;50.960;6.220;2023-10-09T21:29:45;15.00;;;8.50;;
50267;SDS011;36153;50.960;6.220;2023-10-09T21:32:46;14.52;;;8.65;;
50267;SDS011;36153;50.960;6.220;2023-10-09T21:35:47;14.02;;;8.70;;
50267;SDS011;36153;50.960;6.220;2023-10-09T21:38:49;14.48;;;8.95;;
50267;SDS011;36153;50.960;6.220;2023-10-09T21:41:50;16.05;;;9.00;;
50267;SDS011;36153;50.960;6.220;2023-10-09T21:44:50;13.18;;;8.48;;
50267;SDS011;36153;50.960;6.220;2023-10-09T21:47:52;16.38;;;8.82;;
50267;SDS011;36153;50.960;6.220;2023-10-09T21:50:56;14.57;;;9.13;;
50267;SDS011;36153;50.960;6.220;2023-10-09T21:53:56;15.75;;;9.15;;
50267;SDS011;36153;50.960;6.220;2023-10-09T21:56:57;17.40;;;9.05;;
50267;SDS011;36153;50.960;6.220;2023-10-09T21:59:58;15.07;;;8.38;;
50267;SDS011;36153;50.960;6.220;2023-10-09T22:03:02;14.70;;;9.63;;
50267;SDS011;36153;50.960;6.220;2023-10-09T22:06:07;15.20;;;9.05;;
50267;SDS011;36153;50.960;6.220;2023-10-09T22:09:10;19.15;;;9.10;;
50267;SDS011;36153;50.960;6.220;2023-10-09T22:12:14;16.63;;;8.93;;
50267;SDS011;36153;50.960;6.220;2023-10-09T22:15:16;13.73;;;9.50;;
50267;SDS011;36153;50.960;6.220;2023-10-09T22:18:18;14.70;;;9.77;;
50267;SDS011;36153;50.960;6.220;2023-10-09T22:21:21;15.40;;;9.48;;
50267;SDS011;36153;50.960;6.220;2023-10-09T22:24:24;13.07;;;8.75;;
50267;SDS011;36153;50.960;6.220;2023-10-09T22:27:25;15.65;;;9.38;;